createdAt,value
2022-10-18T00:00:10.661Z,8.40
2022-10-18T00:00:43.499Z,9.32
2022-10-18T00:01:15.438Z,9.90
2022-10-18T00:01:47.339Z,9.43
2022-10-18T00:02:20.201Z,8.93
2022-10-18T00:02:52.273Z,8.02
2022-10-18T00:03:24.540Z,7.30
2022-10-18T00:03:56.419Z,7.80
2022-10-18T00:04:28.332Z,7.40
2022-10-18T00:05:00.159Z,7.00
2022-10-18T00:05:32.190Z,6.40
2022-10-18T00:06:06.114Z,7.03
2022-10-18T00:06:41.126Z,6.45
2022-10-18T00:07:15.407Z,7.03
2022-10-18T00:07:47.227Z,6.15
2022-10-18T00:08:19.735Z,5.90
2022-10-18T00:08:51.750Z,6.55
2022-10-18T00:09:23.661Z,5.90
2022-10-18T00:09:55.905Z,5.60
2022-10-18T00:10:27.884Z,5.47
2022-10-18T00:10:59.719Z,5.40
2022-10-18T00:11:31.940Z,5.78
2022-10-18T00:12:04.145Z,5.50
2022-10-18T00:12:37.335Z,5.57
2022-10-18T00:13:09.344Z,6.20
2022-10-18T00:13:41.233Z,5.68
2022-10-18T00:14:13.170Z,6.28
2022-10-18T00:14:45.006Z,6.30
2022-10-18T00:15:17.676Z,5.22
2022-10-18T00:15:55.560Z,5.60
2022-10-18T00:16:27.405Z,5.47
2022-10-18T00:16:59.585Z,5.60
2022-10-18T00:17:31.618Z,6.57
2022-10-18T00:18:04.143Z,7.70
2022-10-18T00:18:35.962Z,5.25
2022-10-18T00:19:07.794Z,5.75
2022-10-18T00:19:39.611Z,4.95
2022-10-18T00:20:12.107Z,5.53
2022-10-18T00:20:43.992Z,5.82
2022-10-18T00:21:21.692Z,5.35
2022-10-18T00:21:53.522Z,5.43
2022-10-18T00:22:25.789Z,5.43
2022-10-18T00:22:57.842Z,5.03
2022-10-18T00:23:31.325Z,5.18
2022-10-18T00:24:03.849Z,5.45
2022-10-18T00:24:35.714Z,5.70
2022-10-18T00:25:08.654Z,5.20
2022-10-18T00:25:40.556Z,5.05
2022-10-18T00:26:21.149Z,5.05
2022-10-18T00:27:25.232Z,5.25
2022-10-18T00:27:57.692Z,5.22
2022-10-18T00:28:29.625Z,4.93
2022-10-18T00:29:04.078Z,4.93
2022-10-18T00:29:35.960Z,5.53
2022-10-18T00:30:08.255Z,4.47
2022-10-18T00:30:40.178Z,4.90
2022-10-18T00:31:16.606Z,4.82
2022-10-18T00:31:48.477Z,4.75
2022-10-18T00:32:20.622Z,4.90
2022-10-18T00:32:52.754Z,4.95
2022-10-18T00:33:24.605Z,4.57
2022-10-18T00:33:59.373Z,4.68
2022-10-18T00:34:31.237Z,5.10
2022-10-18T00:35:03.708Z,4.65
2022-10-18T00:35:35.704Z,4.68
2022-10-18T00:36:07.855Z,4.85
2022-10-18T00:36:39.852Z,5.30
2022-10-18T00:37:11.697Z,5.15
2022-10-18T00:37:43.665Z,5.10
2022-10-18T00:38:15.891Z,5.50
2022-10-18T00:38:48.708Z,4.80
2022-10-18T00:39:21.693Z,5.12
2022-10-18T00:39:53.560Z,5.90
2022-10-18T00:40:25.836Z,5.35
2022-10-18T00:40:57.708Z,5.12
2022-10-18T00:41:31.678Z,5.25
2022-10-18T00:42:04.247Z,4.95
2022-10-18T00:42:37.312Z,5.03
2022-10-18T00:43:15.422Z,5.37
2022-10-18T00:43:59.993Z,4.70
2022-10-18T00:44:32.051Z,5.10
2022-10-18T00:45:16.121Z,5.07
2022-10-18T00:45:47.963Z,4.68
2022-10-18T00:46:20.170Z,5.37
2022-10-18T00:46:55.089Z,5.32
2022-10-18T00:47:27.045Z,5.30
2022-10-18T00:48:02.540Z,5.10
2022-10-18T00:48:34.550Z,4.78
2022-10-18T00:49:19.496Z,4.90
2022-10-18T00:49:56.172Z,5.03
2022-10-18T00:50:32.767Z,5.78
2022-10-18T00:51:04.688Z,5.47
2022-10-18T00:51:56.146Z,5.18
2022-10-18T00:52:39.564Z,5.22
2022-10-18T00:53:21.167Z,4.62
2022-10-18T00:53:53.065Z,5.05
2022-10-18T00:54:28.266Z,5.62
2022-10-18T00:55:00.718Z,5.37
2022-10-18T00:55:34.151Z,5.35
2022-10-18T00:56:06.500Z,4.87
2022-10-18T00:56:38.439Z,5.68
2022-10-18T00:57:11.026Z,5.15
2022-10-18T00:57:45.017Z,6.10
2022-10-18T00:58:19.282Z,5.37
2022-10-18T00:58:51.733Z,5.22
2022-10-18T00:59:24.355Z,5.60
2022-10-18T00:59:56.777Z,6.20
2022-10-18T01:00:28.713Z,5.72
2022-10-18T01:01:00.563Z,5.05
2022-10-18T01:01:32.531Z,5.62
2022-10-18T01:02:06.171Z,5.85
2022-10-18T01:02:40.051Z,4.93
2022-10-18T01:03:11.975Z,5.55
2022-10-18T01:03:43.916Z,5.82
2022-10-18T01:04:18.609Z,5.57
2022-10-18T01:04:50.477Z,5.80
2022-10-18T01:05:24.074Z,6.25
2022-10-18T01:05:55.994Z,5.95
2022-10-18T01:06:29.268Z,5.40
2022-10-18T01:07:16.282Z,5.87
2022-10-18T01:07:53.818Z,5.43
2022-10-18T01:08:45.053Z,5.87
2022-10-18T01:10:31.028Z,5.22
2022-10-18T01:11:08.967Z,5.03
2022-10-18T01:11:58.410Z,5.15
2022-10-18T01:12:33.149Z,5.25
2022-10-18T01:13:29.945Z,5.55
2022-10-18T01:14:20.707Z,4.78
2022-10-18T01:15:06.479Z,5.05
2022-10-18T01:15:52.842Z,4.85
2022-10-18T01:16:31.252Z,4.95
2022-10-18T01:17:13.635Z,5.03
2022-10-18T01:18:27.625Z,4.85
2022-10-18T01:19:40.754Z,4.80
2022-10-18T01:20:36.526Z,5.60
2022-10-18T01:21:37.708Z,5.28
2022-10-18T01:23:44.674Z,5.47
2022-10-18T01:24:57.748Z,5.43
2022-10-18T01:25:44.690Z,5.35
2022-10-18T01:26:16.486Z,6.20
2022-10-18T01:27:06.362Z,5.35
2022-10-18T01:27:45.549Z,5.12
2022-10-18T01:28:28.354Z,5.50
2022-10-18T01:29:06.154Z,5.40
2022-10-18T01:30:02.389Z,6.00
2022-10-18T01:30:41.705Z,5.50
2022-10-18T01:31:19.256Z,5.78
2022-10-18T01:32:01.686Z,5.75
2022-10-18T01:32:48.895Z,5.87
2022-10-18T01:33:28.072Z,5.30
2022-10-18T01:34:04.768Z,5.55
2022-10-18T01:34:41.359Z,5.45
2022-10-18T01:35:18.624Z,6.05
2022-10-18T01:36:01.013Z,6.12
2022-10-18T01:36:36.131Z,7.37
2022-10-18T01:37:14.179Z,5.68
2022-10-18T01:37:49.237Z,5.80
2022-10-18T01:38:25.034Z,5.28
2022-10-18T01:39:01.155Z,5.50
2022-10-18T01:39:37.308Z,5.65
2022-10-18T01:40:12.490Z,5.55
2022-10-18T01:40:47.456Z,5.60
2022-10-18T01:41:22.447Z,6.07
2022-10-18T01:41:57.270Z,5.43
2022-10-18T01:42:29.608Z,5.90
2022-10-18T01:43:02.606Z,5.90
2022-10-18T01:43:37.100Z,6.32
2022-10-18T01:44:12.701Z,5.97
2022-10-18T01:44:46.915Z,5.87
2022-10-18T01:45:21.237Z,6.28
2022-10-18T01:45:55.804Z,5.80
2022-10-18T01:46:29.595Z,5.93
2022-10-18T01:47:01.801Z,5.57
2022-10-18T01:47:35.345Z,5.90
2022-10-18T01:48:07.722Z,6.18
2022-10-18T01:48:40.076Z,5.78
2022-10-18T01:49:11.900Z,5.87
2022-10-18T01:49:43.799Z,6.25
2022-10-18T01:50:16.045Z,6.25
2022-10-18T01:50:47.942Z,6.20
2022-10-18T01:51:31.638Z,6.37
2022-10-18T01:52:03.554Z,5.65
2022-10-18T01:52:35.612Z,6.60
2022-10-18T01:53:25.206Z,6.45
2022-10-18T01:53:57.809Z,5.32
2022-10-18T01:54:39.192Z,6.62
2022-10-18T01:55:11.454Z,6.25
2022-10-18T01:55:56.261Z,6.43
2022-10-18T01:56:49.829Z,6.25
2022-10-18T01:57:46.494Z,6.22
2022-10-18T01:58:31.550Z,6.90
2022-10-18T01:59:15.554Z,6.07
2022-10-18T02:00:09.062Z,6.35
2022-10-18T02:00:44.376Z,6.32
2022-10-18T02:01:31.047Z,6.28
2022-10-18T02:02:21.433Z,6.43
2022-10-18T02:03:09.451Z,7.07
2022-10-18T02:03:46.581Z,5.65
2022-10-18T02:04:31.969Z,6.55
2022-10-18T02:05:33.016Z,6.40
2022-10-18T02:06:33.942Z,6.75
2022-10-18T02:07:30.225Z,6.40
2022-10-18T02:08:23.738Z,7.47
2022-10-18T02:09:13.881Z,6.68
2022-10-18T02:10:26.750Z,7.32
2022-10-18T02:11:03.328Z,7.35
2022-10-18T02:11:38.582Z,7.82
2022-10-18T02:12:14.399Z,7.20
2022-10-18T02:12:48.150Z,7.53
2022-10-18T02:13:22.408Z,7.32
2022-10-18T02:13:58.096Z,6.90
2022-10-18T02:14:30.976Z,8.00
2022-10-18T02:15:06.295Z,7.20
2022-10-18T02:15:41.290Z,7.00
2022-10-18T02:16:30.848Z,7.20
2022-10-18T02:17:07.331Z,7.68
2022-10-18T02:17:41.033Z,7.28
2022-10-18T02:18:19.189Z,6.53
2022-10-18T02:18:58.113Z,6.50
2022-10-18T02:19:38.489Z,7.30
2022-10-18T02:20:13.084Z,7.25
2022-10-18T02:20:46.832Z,7.32
2022-10-18T02:21:21.343Z,7.00
2022-10-18T02:21:55.430Z,7.53
2022-10-18T02:22:32.585Z,6.75
2022-10-18T02:23:08.162Z,7.03
2022-10-18T02:23:39.992Z,7.03
2022-10-18T02:24:14.726Z,6.43
2022-10-18T02:24:51.258Z,7.15
2022-10-18T02:25:30.433Z,6.47
2022-10-18T02:26:02.370Z,6.78
2022-10-18T02:26:34.313Z,6.60
2022-10-18T02:27:06.476Z,6.37
2022-10-18T02:27:38.319Z,6.37
2022-10-18T02:28:10.617Z,6.45
2022-10-18T02:28:43.144Z,6.55
2022-10-18T02:29:15.010Z,6.70
2022-10-18T02:29:47.271Z,6.65
2022-10-18T02:30:23.153Z,7.25
2022-10-18T02:31:20.410Z,6.72
2022-10-18T02:32:03.503Z,6.90
2022-10-18T02:32:44.772Z,6.20
2022-10-18T02:33:27.709Z,6.82
2022-10-18T02:34:11.472Z,6.50
2022-10-18T02:35:05.907Z,7.22
2022-10-18T02:35:44.727Z,6.85
2022-10-18T02:36:23.871Z,5.68
2022-10-18T02:36:59.713Z,6.15
2022-10-18T02:37:36.311Z,6.43
2022-10-18T02:38:11.828Z,6.70
2022-10-18T02:38:46.145Z,6.12
2022-10-18T02:39:29.462Z,6.72
2022-10-18T02:40:02.891Z,6.37
2022-10-18T02:40:34.977Z,6.18
2022-10-18T02:41:07.023Z,6.18
2022-10-18T02:41:38.836Z,6.22
2022-10-18T02:42:11.858Z,6.68
2022-10-18T02:42:53.975Z,5.87
2022-10-18T02:43:25.845Z,7.45
2022-10-18T02:43:58.387Z,6.70
2022-10-18T02:44:30.221Z,7.30
2022-10-18T02:45:02.306Z,6.87
2022-10-18T02:45:34.372Z,6.43
2022-10-18T02:46:06.329Z,6.35
2022-10-18T02:46:39.453Z,6.87
2022-10-18T02:47:12.499Z,6.45
2022-10-18T02:47:44.663Z,6.43
2022-10-18T02:48:16.499Z,7.57
2022-10-18T02:48:48.727Z,7.22
2022-10-18T02:49:20.993Z,6.72
2022-10-18T02:49:52.812Z,7.57
2022-10-18T02:50:24.626Z,6.85
2022-10-18T02:50:56.484Z,7.80
2022-10-18T02:51:28.337Z,7.60
2022-10-18T02:52:00.197Z,7.28
2022-10-18T02:52:32.146Z,6.87
2022-10-18T02:53:04.409Z,7.12
2022-10-18T02:53:36.273Z,6.40
2022-10-18T02:54:08.528Z,7.40
2022-10-18T02:54:40.951Z,7.85
2022-10-18T02:55:12.807Z,7.60
2022-10-18T02:55:44.665Z,7.47
2022-10-18T02:56:16.775Z,6.93
2022-10-18T02:56:48.758Z,7.82
2022-10-18T02:57:20.612Z,7.40
2022-10-18T02:57:52.578Z,7.82
2022-10-18T02:58:24.558Z,7.82
2022-10-18T02:58:56.535Z,6.97
2022-10-18T02:59:28.433Z,7.90
2022-10-18T03:00:00.665Z,7.80
2022-10-18T03:00:32.495Z,7.43
2022-10-18T03:01:04.388Z,7.70
2022-10-18T03:01:36.373Z,7.37
2022-10-18T03:02:08.281Z,7.53
2022-10-18T03:02:40.081Z,7.35
2022-10-18T03:03:11.925Z,7.20
2022-10-18T03:03:43.772Z,7.12
2022-10-18T03:04:15.606Z,7.57
2022-10-18T03:04:47.427Z,6.82
2022-10-18T03:05:19.520Z,7.43
2022-10-18T03:05:52.467Z,7.18
2022-10-18T03:06:24.384Z,7.30
2022-10-18T03:06:56.219Z,7.22
2022-10-18T03:07:28.329Z,7.15
2022-10-18T03:08:00.311Z,7.40
2022-10-18T03:08:32.165Z,7.10
2022-10-18T03:09:05.555Z,6.78
2022-10-18T03:09:37.417Z,6.93
2022-10-18T03:10:09.422Z,7.18
2022-10-18T03:10:46.481Z,7.20
2022-10-18T03:11:18.418Z,7.47
2022-10-18T03:11:50.288Z,7.37
2022-10-18T03:12:22.208Z,7.15
2022-10-18T03:12:54.118Z,6.25
2022-10-18T03:13:26.018Z,7.30
2022-10-18T03:13:57.898Z,6.68
2022-10-18T03:14:30.010Z,7.40
2022-10-18T03:15:01.951Z,7.30
2022-10-18T03:15:33.865Z,6.70
2022-10-18T03:16:06.064Z,6.93
2022-10-18T03:16:38.010Z,6.87
2022-10-18T03:17:09.996Z,7.10
2022-10-18T03:17:41.887Z,6.95
2022-10-18T03:18:13.736Z,7.78
2022-10-18T03:18:45.660Z,7.28
2022-10-18T03:19:17.547Z,6.97
2022-10-18T03:19:49.450Z,6.97
2022-10-18T03:20:21.374Z,7.10
2022-10-18T03:20:53.205Z,6.80
2022-10-18T03:21:25.315Z,6.80
2022-10-18T03:21:57.141Z,6.80
2022-10-18T03:23:07.223Z,7.18
2022-10-18T03:23:40.038Z,6.65
2022-10-18T03:24:12.028Z,6.47
2022-10-18T03:24:43.879Z,7.10
2022-10-18T03:25:15.761Z,8.10
2022-10-18T03:25:49.018Z,7.00
2022-10-18T03:26:21.633Z,6.78
2022-10-18T03:26:53.780Z,7.70
2022-10-18T03:27:25.649Z,7.57
2022-10-18T03:27:57.486Z,7.60
2022-10-18T03:28:29.567Z,7.53
2022-10-18T03:29:01.535Z,7.55
2022-10-18T03:29:33.613Z,8.48
2022-10-18T03:30:05.824Z,7.87
2022-10-18T03:30:38.960Z,7.90
2022-10-18T03:31:10.808Z,8.88
2022-10-18T03:31:42.887Z,8.50
2022-10-18T03:32:15.026Z,9.25
2022-10-18T03:32:46.851Z,9.45
2022-10-18T03:33:18.713Z,9.23
2022-10-18T03:33:50.546Z,9.25
2022-10-18T03:34:22.412Z,9.52
2022-10-18T03:34:55.052Z,9.82
2022-10-18T03:35:26.868Z,8.93
2022-10-18T03:35:58.754Z,8.73
2022-10-18T03:36:30.638Z,8.38
2022-10-18T03:37:04.786Z,8.90
2022-10-18T03:37:39.026Z,8.90
2022-10-18T03:38:10.860Z,8.95
2022-10-18T03:38:42.724Z,9.00
2022-10-18T03:39:14.635Z,9.32
2022-10-18T03:39:46.445Z,8.20
2022-10-18T03:40:18.422Z,8.60
2022-10-18T03:40:50.266Z,7.40
2022-10-18T03:41:22.128Z,8.85
2022-10-18T03:41:53.949Z,8.65
2022-10-18T03:42:25.819Z,8.10
2022-10-18T03:42:57.958Z,8.20
2022-10-18T03:43:29.846Z,8.73
2022-10-18T03:44:01.685Z,9.15
2022-10-18T03:44:33.805Z,7.37
2022-10-18T03:45:06.170Z,7.18
2022-10-18T03:45:38.088Z,6.87
2022-10-18T03:46:10.004Z,7.10
2022-10-18T03:46:41.902Z,7.47
2022-10-18T03:47:13.869Z,7.95
2022-10-18T03:47:46.079Z,7.30
2022-10-18T03:48:18.241Z,7.53
2022-10-18T03:48:50.169Z,7.40
2022-10-18T03:49:22.096Z,8.00
2022-10-18T03:49:56.998Z,7.78
2022-10-18T03:50:29.253Z,7.53
2022-10-18T03:51:01.063Z,7.12
2022-10-18T03:51:32.916Z,7.43
2022-10-18T03:52:04.791Z,7.85
2022-10-18T03:52:36.638Z,7.62
2022-10-18T03:53:08.589Z,7.68
2022-10-18T03:53:40.758Z,7.25
2022-10-18T03:54:12.572Z,7.10
2022-10-18T03:54:44.429Z,7.47
2022-10-18T03:55:16.443Z,7.80
2022-10-18T03:55:52.799Z,8.13
2022-10-18T03:56:24.860Z,6.85
2022-10-18T03:56:56.735Z,6.50
2022-10-18T03:57:28.562Z,7.20
2022-10-18T03:58:00.428Z,7.45
2022-10-18T03:59:09.358Z,7.43
2022-10-18T03:59:41.308Z,7.35
2022-10-18T04:00:14.451Z,6.68
2022-10-18T04:00:52.983Z,7.15
2022-10-18T04:01:25.007Z,8.00
2022-10-18T04:01:57.032Z,7.37
2022-10-18T04:02:29.192Z,7.82
2022-10-18T04:03:01.405Z,7.53
2022-10-18T04:03:33.289Z,7.95
2022-10-18T04:04:05.107Z,7.65
2022-10-18T04:04:36.917Z,8.65
2022-10-18T04:05:09.298Z,11.73
2022-10-18T04:05:41.142Z,10.27
2022-10-18T04:06:13.352Z,7.85
2022-10-18T04:06:45.230Z,7.97
2022-10-18T04:07:17.099Z,7.62
2022-10-18T04:07:48.949Z,8.27
2022-10-18T04:08:20.815Z,8.05
2022-10-18T04:08:52.679Z,9.50
2022-10-18T04:09:24.515Z,7.20
2022-10-18T04:09:56.336Z,7.82
2022-10-18T04:10:28.490Z,7.55
2022-10-18T04:11:04.302Z,7.95
2022-10-18T04:11:36.587Z,9.50
2022-10-18T04:12:08.426Z,7.72
2022-10-18T04:12:40.393Z,7.82
2022-10-18T04:13:12.300Z,7.68
2022-10-18T04:13:44.119Z,7.50
2022-10-18T04:14:16.036Z,7.80
2022-10-18T04:14:48.656Z,8.20
2022-10-18T04:15:20.899Z,7.40
2022-10-18T04:15:52.711Z,7.70
2022-10-18T04:16:24.672Z,7.57
2022-10-18T04:16:56.896Z,7.70
2022-10-18T04:17:28.726Z,7.50
2022-10-18T04:18:01.303Z,8.52
2022-10-18T04:18:33.231Z,8.43
2022-10-18T04:19:05.113Z,7.95
2022-10-18T04:19:36.969Z,8.57
2022-10-18T04:20:09.256Z,7.78
2022-10-18T04:20:41.073Z,7.25
2022-10-18T04:21:12.894Z,7.87
2022-10-18T04:21:44.756Z,8.60
2022-10-18T04:22:16.900Z,8.32
2022-10-18T04:22:52.605Z,8.88
2022-10-18T04:23:24.676Z,8.25
2022-10-18T04:23:56.482Z,8.30
2022-10-18T04:24:28.368Z,7.97
2022-10-18T04:25:00.356Z,7.40
2022-10-18T04:25:32.260Z,7.80
2022-10-18T04:26:04.247Z,7.87
2022-10-18T04:26:36.633Z,7.65
2022-10-18T04:27:08.961Z,7.75
2022-10-18T04:27:41.201Z,8.80
2022-10-18T04:28:13.062Z,8.52
2022-10-18T04:28:45.587Z,8.15
2022-10-18T04:29:17.545Z,8.32
2022-10-18T04:29:49.436Z,8.50
2022-10-18T04:30:21.460Z,7.85
2022-10-18T04:30:53.998Z,8.80
2022-10-18T04:31:25.818Z,8.07
2022-10-18T04:31:57.649Z,8.93
2022-10-18T04:32:31.415Z,8.95
2022-10-18T04:33:03.605Z,9.45
2022-10-18T04:33:35.494Z,9.43
2022-10-18T04:34:07.373Z,8.65
2022-10-18T04:34:39.265Z,8.82
2022-10-18T04:35:11.573Z,8.25
2022-10-18T04:35:43.478Z,8.55
2022-10-18T04:36:15.303Z,9.60
2022-10-18T04:36:47.140Z,8.55
2022-10-18T04:37:18.966Z,8.65
2022-10-18T04:37:50.973Z,8.43
2022-10-18T04:38:23.149Z,8.02
2022-10-18T04:38:55.023Z,9.40
2022-10-18T04:39:26.911Z,9.30
2022-10-18T04:39:59.000Z,8.90
2022-10-18T04:40:30.829Z,8.20
2022-10-18T04:41:02.704Z,8.68
2022-10-18T04:41:34.644Z,8.88
2022-10-18T04:42:06.509Z,8.70
2022-10-18T04:42:38.349Z,8.50
2022-10-18T04:43:10.265Z,9.00
2022-10-18T04:43:42.511Z,9.02
2022-10-18T04:44:14.450Z,9.73
2022-10-18T04:44:46.286Z,9.38
2022-10-18T04:45:18.871Z,8.18
2022-10-18T04:45:51.262Z,9.63
2022-10-18T04:46:23.197Z,9.05
2022-10-18T04:46:55.097Z,8.63
2022-10-18T04:47:26.999Z,9.48
2022-10-18T04:47:58.873Z,9.77
2022-10-18T04:48:30.719Z,9.63
2022-10-18T04:49:03.347Z,9.20
2022-10-18T04:49:35.269Z,8.95
2022-10-18T04:50:07.464Z,9.00
2022-10-18T04:50:39.285Z,9.65
2022-10-18T04:51:18.575Z,10.23
2022-10-18T04:51:50.420Z,8.57
2022-10-18T04:52:22.200Z,8.98
2022-10-18T04:52:54.046Z,8.85
2022-10-18T04:53:25.904Z,9.52
2022-10-18T04:53:57.748Z,11.30
2022-10-18T04:54:29.884Z,9.48
2022-10-18T04:55:01.755Z,9.32
2022-10-18T04:55:33.572Z,9.88
2022-10-18T04:56:05.816Z,9.55
2022-10-18T04:56:37.894Z,9.90
2022-10-18T04:57:09.813Z,10.00
2022-10-18T04:57:41.785Z,10.88
2022-10-18T04:58:13.663Z,10.65
2022-10-18T04:58:45.467Z,10.63
2022-10-18T04:59:17.292Z,11.02
2022-10-18T04:59:49.467Z,11.35
2022-10-18T05:00:21.760Z,10.88
2022-10-18T05:00:54.097Z,9.90
2022-10-18T05:01:25.987Z,10.23
2022-10-18T05:01:58.028Z,9.85
2022-10-18T05:02:30.357Z,9.65
2022-10-18T05:03:02.541Z,9.98
2022-10-18T05:03:34.902Z,10.25
2022-10-18T05:04:06.748Z,10.50
2022-10-18T05:04:38.591Z,10.68
2022-10-18T05:05:14.006Z,10.15
2022-10-18T05:06:03.199Z,11.02
2022-10-18T05:06:35.483Z,10.13
2022-10-18T05:07:07.371Z,10.45
2022-10-18T05:07:39.209Z,10.32
2022-10-18T05:08:11.085Z,11.63
2022-10-18T05:08:42.933Z,10.73
2022-10-18T05:09:14.860Z,10.63
2022-10-18T05:09:46.687Z,11.75
2022-10-18T05:10:18.908Z,11.02
2022-10-18T05:10:50.737Z,10.82
2022-10-18T05:11:22.599Z,10.85
2022-10-18T05:11:54.476Z,11.80
2022-10-18T05:12:26.376Z,10.88
2022-10-18T05:12:58.264Z,10.82
2022-10-18T05:13:30.451Z,10.23
2022-10-18T05:14:02.286Z,10.27
2022-10-18T05:14:34.268Z,8.98
2022-10-18T05:15:06.481Z,8.60
2022-10-18T05:15:38.666Z,11.57
2022-10-18T05:16:10.905Z,8.57
2022-10-18T05:16:42.762Z,8.48
2022-10-18T05:17:14.840Z,8.57
2022-10-18T05:17:47.004Z,8.52
2022-10-18T05:18:18.890Z,8.30
2022-10-18T05:18:50.745Z,8.52
2022-10-18T05:19:22.570Z,8.05
2022-10-18T05:19:54.424Z,8.75
2022-10-18T05:20:26.243Z,8.63
2022-10-18T05:20:58.504Z,8.93
2022-10-18T05:21:30.365Z,8.43
2022-10-18T05:22:02.238Z,8.40
2022-10-18T05:22:34.208Z,8.55
2022-10-18T05:23:06.400Z,8.98
2022-10-18T05:23:38.506Z,10.13
2022-10-18T05:24:13.479Z,10.30
2022-10-18T05:24:45.340Z,10.10
2022-10-18T05:25:17.358Z,9.55
2022-10-18T05:25:49.924Z,11.10
2022-10-18T05:26:22.194Z,10.77
2022-10-18T05:26:54.018Z,9.45
2022-10-18T05:27:25.883Z,9.95
2022-10-18T05:27:58.014Z,10.30
2022-10-18T05:28:40.114Z,9.63
2022-10-18T05:29:12.352Z,9.13
2022-10-18T05:29:44.240Z,9.75
2022-10-18T05:30:16.132Z,10.00
2022-10-18T05:30:47.983Z,10.77
2022-10-18T05:31:19.972Z,10.50
2022-10-18T05:31:52.320Z,10.57
2022-10-18T05:32:24.184Z,10.75
2022-10-18T05:32:56.012Z,9.85
2022-10-18T05:33:28.285Z,10.48
2022-10-18T05:34:01.577Z,10.55
2022-10-18T05:34:33.602Z,10.27
2022-10-18T05:35:05.851Z,10.50
2022-10-18T05:35:37.753Z,12.07
2022-10-18T05:36:10.574Z,10.65
2022-10-18T05:36:42.534Z,11.45
2022-10-18T05:37:14.765Z,11.32
2022-10-18T05:37:46.578Z,11.70
2022-10-18T05:38:18.411Z,11.35
2022-10-18T05:38:50.409Z,9.98
2022-10-18T05:39:22.251Z,11.10
2022-10-18T05:39:54.126Z,10.70
2022-10-18T05:40:26.015Z,11.98
2022-10-18T05:40:58.973Z,10.95
2022-10-18T05:41:31.398Z,11.32
2022-10-18T05:42:03.479Z,10.60
2022-10-18T05:42:35.810Z,10.15
2022-10-18T05:43:07.683Z,11.35
2022-10-18T05:43:40.494Z,10.85
2022-10-18T05:44:12.363Z,10.93
2022-10-18T05:44:44.177Z,11.00
2022-10-18T05:45:16.115Z,10.63
2022-10-18T05:45:50.028Z,11.45
2022-10-18T05:46:22.296Z,11.82
2022-10-18T05:46:54.168Z,10.45
2022-10-18T05:47:26.018Z,10.55
2022-10-18T05:47:58.270Z,10.52
2022-10-18T05:48:30.156Z,11.40
2022-10-18T05:49:02.005Z,11.95
2022-10-18T05:49:33.909Z,10.52
2022-10-18T05:50:05.872Z,11.82
2022-10-18T05:50:40.245Z,11.25
2022-10-18T05:51:12.396Z,11.60
2022-10-18T05:51:44.231Z,11.12
2022-10-18T05:52:17.116Z,11.90
2022-10-18T05:52:48.926Z,10.60
2022-10-18T05:53:37.494Z,11.32
2022-10-18T05:54:12.389Z,10.68
2022-10-18T05:54:44.243Z,11.48
2022-10-18T05:55:16.141Z,10.63
2022-10-18T05:55:48.003Z,12.37
2022-10-18T05:56:19.878Z,11.70
2022-10-18T05:56:51.755Z,11.38
2022-10-18T05:57:23.611Z,10.55
2022-10-18T05:57:55.483Z,11.45
2022-10-18T05:58:27.648Z,10.77
2022-10-18T05:58:59.551Z,11.23
2022-10-18T05:59:31.465Z,12.60
2022-10-18T06:00:04.608Z,11.52
2022-10-18T06:00:43.693Z,11.60
2022-10-18T06:01:16.071Z,11.57
2022-10-18T06:01:47.915Z,11.00
2022-10-18T06:02:19.830Z,11.95
2022-10-18T06:02:51.844Z,11.68
2022-10-18T06:03:23.697Z,12.37
2022-10-18T06:03:55.543Z,14.30
2022-10-18T06:04:27.342Z,12.13
2022-10-18T06:04:59.751Z,12.45
2022-10-18T06:05:31.685Z,12.07
2022-10-18T06:06:08.577Z,12.48
2022-10-18T06:06:40.769Z,13.00
2022-10-18T06:07:12.636Z,11.10
2022-10-18T06:07:44.539Z,12.35
2022-10-18T06:08:16.515Z,12.45
2022-10-18T06:08:50.040Z,12.48
2022-10-18T06:09:21.971Z,10.88
2022-10-18T06:09:53.803Z,11.98
2022-10-18T06:10:25.643Z,11.75
2022-10-18T06:10:57.550Z,11.98
2022-10-18T06:11:30.622Z,12.63
2022-10-18T06:12:03.436Z,12.80
2022-10-18T06:12:35.244Z,12.73
2022-10-18T06:13:07.122Z,12.60
2022-10-18T06:13:50.841Z,12.00
2022-10-18T06:14:22.719Z,11.82
2022-10-18T06:14:54.552Z,11.52
2022-10-18T06:15:26.427Z,12.43
2022-10-18T06:15:58.275Z,12.18
2022-10-18T06:16:32.662Z,11.52
2022-10-18T06:17:05.575Z,12.88
2022-10-18T06:17:37.775Z,12.10
2022-10-18T06:18:10.002Z,12.10
2022-10-18T06:18:42.731Z,12.10
2022-10-18T06:19:14.618Z,13.15
2022-10-18T06:19:46.491Z,12.70
2022-10-18T06:20:18.335Z,13.10
2022-10-18T06:20:50.182Z,12.65
2022-10-18T06:21:23.412Z,12.40
2022-10-18T06:21:55.277Z,11.77
2022-10-18T06:22:27.393Z,12.88
2022-10-18T06:22:59.216Z,12.65
2022-10-18T06:23:31.142Z,12.95
2022-10-18T06:24:02.999Z,12.57
2022-10-18T06:24:34.892Z,12.93
2022-10-18T06:25:07.118Z,12.98
2022-10-18T06:25:38.944Z,13.02
2022-10-18T06:26:11.687Z,12.48
2022-10-18T06:26:43.566Z,12.55
2022-10-18T06:27:15.399Z,13.88
2022-10-18T06:27:47.552Z,13.52
2022-10-18T06:28:19.551Z,13.82
2022-10-18T06:28:51.565Z,13.25
2022-10-18T06:29:23.422Z,13.23
2022-10-18T06:29:55.291Z,12.35
2022-10-18T06:30:27.119Z,12.55
2022-10-18T06:30:58.976Z,13.13
2022-10-18T06:31:30.851Z,13.13
2022-10-18T06:32:03.182Z,13.80
2022-10-18T06:32:35.004Z,12.82
2022-10-18T06:33:07.149Z,13.68
2022-10-18T06:33:39.373Z,13.30
2022-10-18T06:34:11.322Z,13.40
2022-10-18T06:34:43.150Z,13.68
2022-10-18T06:35:15.080Z,13.13
2022-10-18T06:36:07.636Z,13.43
2022-10-18T06:36:39.470Z,12.85
2022-10-18T06:37:11.482Z,12.77
2022-10-18T06:38:20.387Z,13.40
2022-10-18T06:38:53.474Z,13.05
2022-10-18T06:39:26.061Z,11.85
2022-10-18T06:39:58.067Z,13.50
2022-10-18T06:40:30.964Z,13.27
2022-10-18T06:41:03.605Z,13.23
2022-10-18T06:41:35.437Z,12.13
2022-10-18T06:42:07.503Z,12.77
2022-10-18T06:42:39.350Z,12.57
2022-10-18T06:43:20.511Z,12.75
2022-10-18T06:43:57.385Z,12.75
2022-10-18T06:44:29.244Z,12.80
2022-10-18T06:45:01.160Z,12.80
2022-10-18T06:45:33.622Z,11.63
2022-10-18T06:46:07.684Z,13.73
2022-10-18T06:46:49.433Z,13.15
2022-10-18T06:47:21.345Z,12.60
2022-10-18T06:47:53.189Z,12.32
2022-10-18T06:48:25.082Z,12.13
2022-10-18T06:48:57.721Z,12.00
2022-10-18T06:49:29.603Z,13.57
2022-10-18T06:50:01.481Z,12.85
2022-10-18T06:50:33.301Z,12.85
2022-10-18T06:51:06.867Z,12.57
2022-10-18T06:51:38.900Z,12.63
2022-10-18T06:52:10.755Z,12.80
2022-10-18T06:52:42.614Z,11.77
2022-10-18T06:53:14.445Z,12.05
2022-10-18T06:53:59.066Z,12.80
2022-10-18T06:54:38.465Z,13.07
2022-10-18T06:55:10.327Z,12.82
2022-10-18T06:55:42.178Z,12.52
2022-10-18T06:56:14.083Z,12.80
2022-10-18T06:56:46.124Z,13.07
2022-10-18T06:57:18.023Z,12.18
2022-10-18T06:57:49.861Z,13.52
2022-10-18T06:58:21.711Z,12.23
2022-10-18T06:58:53.566Z,11.77
2022-10-18T06:59:28.857Z,11.23
2022-10-18T07:00:04.872Z,11.70
2022-10-18T07:00:37.056Z,11.00
2022-10-18T07:01:11.338Z,10.98
2022-10-18T07:01:43.848Z,10.30
2022-10-18T07:02:19.452Z,10.50
2022-10-18T07:02:51.301Z,10.77
2022-10-18T07:03:23.411Z,10.77
2022-10-18T07:03:56.005Z,11.12
2022-10-18T07:04:30.870Z,10.23
2022-10-18T07:05:02.836Z,10.30
2022-10-18T07:05:34.976Z,10.23
2022-10-18T07:06:08.841Z,10.10
2022-10-18T07:06:40.787Z,10.07
2022-10-18T07:07:12.771Z,9.05
2022-10-18T07:07:44.688Z,9.55
2022-10-18T07:08:17.700Z,9.45
2022-10-18T07:08:50.969Z,9.68
2022-10-18T07:09:22.816Z,9.52
2022-10-18T07:09:54.650Z,9.68
2022-10-18T07:10:26.489Z,9.95
2022-10-18T07:10:58.856Z,9.60
2022-10-18T07:11:30.739Z,9.68
2022-10-18T07:12:02.630Z,9.52
2022-10-18T07:12:34.747Z,9.27
2022-10-18T07:13:31.374Z,10.00
2022-10-18T07:14:03.299Z,9.20
2022-10-18T07:14:35.131Z,8.82
2022-10-18T07:15:09.518Z,9.45
2022-10-18T07:15:41.638Z,8.90
2022-10-18T07:16:18.312Z,8.63
2022-10-18T07:16:50.512Z,8.20
2022-10-18T07:17:22.332Z,8.73
2022-10-18T07:17:54.150Z,8.55
2022-10-18T07:18:25.989Z,9.35
2022-10-18T07:18:59.160Z,8.80
2022-10-18T07:19:31.088Z,9.25
2022-10-18T07:20:04.354Z,8.63
2022-10-18T07:20:36.218Z,8.82
2022-10-18T07:21:15.920Z,8.88
2022-10-18T07:21:48.014Z,9.25
2022-10-18T07:22:19.881Z,8.82
2022-10-18T07:22:56.156Z,8.98
2022-10-18T07:23:27.973Z,8.65
2022-10-18T07:23:59.827Z,8.73
2022-10-18T07:25:08.728Z,8.90
2022-10-18T07:25:40.564Z,9.65
2022-10-18T07:26:29.111Z,8.65
2022-10-18T07:27:01.273Z,8.70
2022-10-18T07:27:40.512Z,8.23
2022-10-18T07:28:12.643Z,8.23
2022-10-18T07:28:47.479Z,8.63
2022-10-18T07:29:19.443Z,8.15
2022-10-18T07:29:51.436Z,8.32
2022-10-18T07:30:23.265Z,8.65
2022-10-18T07:30:55.262Z,9.10
2022-10-18T07:31:28.049Z,9.18
2022-10-18T07:32:00.012Z,9.15
2022-10-18T07:32:32.306Z,9.32
2022-10-18T07:33:04.187Z,8.93
2022-10-18T07:33:38.235Z,8.55
2022-10-18T07:34:12.967Z,8.65
2022-10-18T07:34:44.800Z,8.05
2022-10-18T07:35:16.695Z,8.05